createdAt,value
2022-07-31T00:00:15.735Z,18.70
2022-07-31T00:02:43.060Z,18.70
2022-07-31T00:05:10.550Z,18.70
2022-07-31T00:07:37.628Z,18.70
2022-07-31T00:10:05.958Z,18.70
2022-07-31T00:12:35.019Z,18.60
2022-07-31T00:15:07.096Z,18.50
2022-07-31T00:17:34.759Z,18.40
2022-07-31T00:20:02.487Z,18.40
2022-07-31T00:22:30.302Z,18.30
2022-07-31T00:24:57.460Z,18.30
2022-07-31T00:27:24.797Z,18.20
2022-07-31T00:29:52.172Z,18.20
2022-07-31T00:32:19.423Z,18.20
2022-07-31T00:34:46.510Z,18.10
2022-07-31T00:37:13.558Z,18.10
2022-07-31T00:39:40.615Z,18.00
2022-07-31T00:42:18.225Z,18.00
2022-07-31T00:44:47.864Z,18.00
2022-07-31T00:47:16.066Z,18.10
2022-07-31T00:49:43.459Z,18.10
2022-07-31T00:52:10.523Z,18.00
2022-07-31T00:54:37.959Z,18.00
2022-07-31T00:57:06.130Z,17.90
2022-07-31T00:59:33.720Z,17.80
2022-07-31T01:02:00.974Z,17.70
2022-07-31T01:04:28.041Z,17.60
2022-07-31T01:06:59.550Z,17.50
2022-07-31T01:09:26.955Z,17.50
2022-07-31T01:12:10.070Z,17.30
2022-07-31T01:14:41.021Z,17.30
2022-07-31T01:17:09.780Z,17.20
2022-07-31T01:19:43.365Z,17.10
2022-07-31T01:22:34.671Z,17.10
2022-07-31T01:25:06.965Z,17.00
2022-07-31T01:27:55.349Z,17.00
2022-07-31T01:30:30.303Z,17.00
2022-07-31T01:33:00.975Z,16.90
2022-07-31T01:35:31.905Z,16.90
2022-07-31T01:38:14.522Z,16.90
2022-07-31T01:40:50.821Z,16.90
2022-07-31T01:43:34.033Z,16.90
2022-07-31T01:46:03.431Z,16.80
2022-07-31T01:48:33.444Z,16.80
2022-07-31T01:51:03.067Z,16.80
2022-07-31T01:53:31.565Z,16.80
2022-07-31T01:56:03.677Z,16.70
2022-07-31T01:58:35.500Z,16.70
2022-07-31T02:01:04.609Z,16.70
2022-07-31T02:03:43.636Z,16.70
2022-07-31T02:06:15.060Z,16.70
2022-07-31T02:08:45.931Z,16.70
2022-07-31T02:11:16.135Z,16.70
2022-07-31T02:13:45.430Z,16.60
2022-07-31T02:16:14.934Z,16.60
2022-07-31T02:18:43.202Z,16.60
2022-07-31T02:21:10.412Z,16.60
2022-07-31T02:23:38.307Z,16.60
2022-07-31T02:26:07.349Z,16.60
2022-07-31T02:28:38.293Z,16.50
2022-07-31T02:31:10.660Z,16.50
2022-07-31T02:33:40.312Z,16.50
2022-07-31T02:36:08.628Z,16.50
2022-07-31T02:38:37.510Z,16.50
2022-07-31T02:41:05.824Z,16.50
2022-07-31T02:43:35.385Z,16.60
2022-07-31T02:46:04.970Z,16.50
2022-07-31T02:48:32.954Z,16.50
2022-07-31T02:51:00.163Z,16.50
2022-07-31T02:53:27.494Z,16.50
2022-07-31T02:55:55.041Z,16.50
2022-07-31T02:58:22.147Z,16.50
2022-07-31T03:00:59.052Z,16.50
2022-07-31T03:03:26.677Z,16.40
2022-07-31T03:05:53.865Z,16.40
2022-07-31T03:08:20.943Z,16.30
2022-07-31T03:10:48.279Z,16.30
2022-07-31T03:13:17.128Z,16.30
2022-07-31T03:15:50.264Z,16.30
2022-07-31T03:18:21.811Z,16.30
2022-07-31T03:20:51.976Z,16.40
2022-07-31T03:23:22.193Z,16.40
2022-07-31T03:25:50.632Z,16.50
2022-07-31T03:28:19.769Z,16.50
2022-07-31T03:30:50.744Z,16.50
2022-07-31T03:33:22.396Z,16.60
2022-07-31T03:35:50.368Z,16.60
2022-07-31T03:38:41.860Z,16.60
2022-07-31T03:41:05.056Z,16.60
2022-07-31T03:43:44.357Z,16.60
2022-07-31T03:46:18.290Z,16.60
2022-07-31T03:48:46.315Z,16.70
2022-07-31T03:51:13.829Z,16.80
2022-07-31T03:53:41.617Z,16.80
2022-07-31T03:56:10.045Z,16.80
2022-07-31T03:58:38.702Z,16.80
2022-07-31T04:01:10.539Z,17.00
2022-07-31T04:03:39.925Z,17.10
2022-07-31T04:06:07.803Z,17.10
2022-07-31T04:08:34.810Z,17.20
2022-07-31T04:11:02.868Z,17.40
2022-07-31T04:13:29.948Z,17.40
2022-07-31T04:15:57.001Z,17.40
2022-07-31T04:18:24.101Z,17.50
2022-07-31T04:20:51.193Z,17.50
2022-07-31T04:23:18.312Z,17.60
2022-07-31T04:25:46.845Z,17.60
2022-07-31T04:28:13.966Z,17.60
2022-07-31T04:30:41.068Z,17.50
2022-07-31T04:33:08.169Z,17.50
2022-07-31T04:35:35.410Z,17.50
2022-07-31T04:38:02.450Z,17.50
2022-07-31T04:40:29.517Z,17.60
2022-07-31T04:42:56.663Z,17.60
2022-07-31T04:45:23.674Z,17.60
2022-07-31T04:47:50.742Z,17.60
2022-07-31T04:50:17.862Z,17.60
2022-07-31T04:52:44.966Z,17.60
2022-07-31T04:55:12.045Z,17.60
2022-07-31T04:57:39.138Z,17.70
2022-07-31T05:00:07.526Z,17.70
2022-07-31T05:02:34.621Z,17.70
2022-07-31T05:05:02.122Z,17.70
2022-07-31T05:07:29.286Z,17.60
2022-07-31T05:09:57.285Z,17.60
2022-07-31T05:12:24.580Z,17.60
2022-07-31T05:14:51.689Z,17.50
2022-07-31T05:17:18.752Z,17.60
2022-07-31T05:19:45.855Z,17.60
2022-07-31T05:22:12.976Z,17.60
2022-07-31T05:24:43.161Z,17.70
2022-07-31T05:27:10.590Z,17.80
2022-07-31T05:29:37.690Z,17.80
2022-07-31T05:32:05.282Z,17.90
2022-07-31T05:34:32.661Z,17.90
2022-07-31T05:37:03.192Z,18.10
2022-07-31T05:39:33.056Z,18.10
2022-07-31T05:42:00.101Z,18.20
2022-07-31T05:44:27.236Z,18.20
2022-07-31T05:49:27.005Z,18.40
2022-07-31T05:51:54.702Z,18.50
2022-07-31T05:54:22.877Z,18.60
2022-07-31T05:56:50.240Z,18.80
2022-07-31T05:59:17.611Z,19.00
2022-07-31T06:01:45.009Z,19.30
2022-07-31T06:04:12.733Z,19.50
2022-07-31T06:06:39.930Z,19.60
2022-07-31T06:09:07.106Z,19.70
2022-07-31T06:11:34.394Z,19.70
2022-07-31T06:14:01.767Z,19.80
2022-07-31T06:16:29.119Z,19.80
2022-07-31T06:18:56.548Z,19.90
2022-07-31T06:21:27.533Z,20.00
2022-07-31T06:23:57.292Z,20.10
2022-07-31T06:26:24.401Z,20.30
2022-07-31T06:28:54.402Z,20.60
2022-07-31T06:31:22.503Z,20.70
2022-07-31T06:33:51.158Z,20.60
2022-07-31T06:36:20.116Z,20.70
2022-07-31T06:38:47.344Z,20.70
2022-07-31T06:41:32.963Z,20.80
2022-07-31T06:44:00.093Z,20.90
2022-07-31T06:46:27.476Z,21.00
2022-07-31T06:48:54.664Z,21.00
2022-07-31T06:51:37.059Z,21.20
2022-07-31T06:54:05.897Z,21.20
2022-07-31T06:56:33.885Z,21.10
2022-07-31T06:59:02.151Z,21.10
2022-07-31T07:01:29.732Z,21.10
2022-07-31T07:03:57.615Z,21.10
2022-07-31T07:06:25.015Z,21.10
2022-07-31T07:08:53.120Z,21.00
2022-07-31T07:11:21.058Z,21.00
2022-07-31T07:13:48.482Z,21.00
2022-07-31T07:16:16.278Z,21.00
2022-07-31T07:18:43.783Z,20.90
2022-07-31T07:21:11.395Z,20.80
2022-07-31T07:23:38.621Z,20.70
2022-07-31T07:26:06.386Z,20.70
2022-07-31T07:28:34.137Z,20.60
2022-07-31T07:31:01.750Z,20.50
2022-07-31T07:33:40.902Z,20.40
2022-07-31T07:36:22.525Z,20.30
2022-07-31T07:38:55.097Z,20.30
2022-07-31T07:41:26.444Z,20.20
2022-07-31T07:43:54.387Z,20.20
2022-07-31T07:46:25.644Z,20.20
2022-07-31T07:48:54.753Z,20.20
2022-07-31T07:51:22.703Z,20.10
2022-07-31T07:53:50.216Z,20.10
2022-07-31T07:56:18.111Z,20.20
2022-07-31T07:58:45.627Z,20.20
2022-07-31T08:01:12.927Z,20.20
2022-07-31T08:03:51.304Z,20.40
2022-07-31T08:06:21.653Z,20.40
2022-07-31T08:08:48.929Z,20.40
2022-07-31T08:11:16.944Z,20.50
2022-07-31T08:13:50.145Z,20.60
2022-07-31T08:16:22.121Z,20.70
2022-07-31T08:18:50.601Z,20.90
2022-07-31T08:21:17.745Z,21.00
2022-07-31T08:23:44.851Z,20.90
2022-07-31T08:26:13.205Z,21.00
2022-07-31T08:28:50.425Z,20.90
2022-07-31T08:31:19.015Z,21.00
2022-07-31T08:33:46.135Z,21.20
2022-07-31T08:36:13.713Z,21.30
2022-07-31T08:38:40.839Z,21.50
2022-07-31T08:41:07.898Z,21.60
2022-07-31T08:44:02.129Z,21.70
2022-07-31T08:46:23.647Z,21.50
2022-07-31T08:48:54.891Z,21.50
2022-07-31T08:51:24.136Z,21.60
2022-07-31T08:53:52.033Z,22.00
2022-07-31T08:56:21.256Z,22.10
2022-07-31T08:58:48.431Z,22.10
2022-07-31T09:01:15.845Z,22.30
2022-07-31T09:03:43.234Z,22.50
2022-07-31T09:06:11.082Z,22.50
2022-07-31T09:08:38.651Z,22.50
2022-07-31T09:11:13.695Z,22.60
2022-07-31T09:14:02.300Z,22.80
2022-07-31T09:16:31.303Z,22.90
2022-07-31T09:19:52.237Z,22.90
2022-07-31T09:21:52.708Z,22.90
2022-07-31T09:24:30.262Z,23.10
2022-07-31T09:27:08.799Z,23.20
2022-07-31T09:29:39.741Z,23.10
2022-07-31T09:32:19.467Z,23.20
2022-07-31T09:34:48.244Z,23.10
2022-07-31T09:37:22.230Z,23.20
2022-07-31T09:39:52.769Z,23.30
2022-07-31T09:42:21.612Z,23.60
2022-07-31T09:44:53.014Z,23.80
2022-07-31T09:47:31.306Z,23.70
2022-07-31T09:50:00.299Z,23.40
2022-07-31T09:52:29.193Z,23.30
2022-07-31T09:55:15.504Z,23.30
2022-07-31T09:58:01.701Z,23.30
2022-07-31T10:00:29.107Z,23.40
2022-07-31T10:02:57.518Z,23.40
2022-07-31T10:05:27.871Z,23.50
2022-07-31T10:07:58.100Z,23.70
2022-07-31T10:10:25.618Z,23.80
2022-07-31T10:12:55.856Z,24.10
2022-07-31T10:15:26.482Z,24.30
2022-07-31T10:17:55.067Z,24.60
2022-07-31T10:20:25.116Z,24.80
2022-07-31T10:23:09.563Z,25.00
2022-07-31T10:25:40.871Z,25.20
2022-07-31T10:28:08.152Z,25.20
2022-07-31T10:30:37.108Z,25.10
2022-07-31T10:33:17.487Z,25.10
2022-07-31T10:36:09.015Z,25.10
2022-07-31T10:38:46.636Z,25.30
2022-07-31T10:41:51.568Z,25.20
2022-07-31T10:44:34.365Z,25.10
2022-07-31T10:47:17.869Z,25.10
2022-07-31T10:49:48.622Z,25.10
2022-07-31T10:52:36.199Z,25.10
2022-07-31T10:55:22.542Z,25.50
2022-07-31T10:57:55.888Z,25.70
2022-07-31T11:00:29.588Z,25.60
2022-07-31T11:02:57.422Z,25.50
2022-07-31T11:05:28.595Z,25.30
2022-07-31T11:08:04.506Z,25.00
2022-07-31T11:10:34.285Z,24.90
2022-07-31T11:13:05.592Z,24.90
2022-07-31T11:15:33.811Z,25.50
2022-07-31T11:18:25.267Z,25.70
2022-07-31T11:21:13.302Z,26.10
2022-07-31T11:23:56.364Z,26.50
2022-07-31T11:26:32.963Z,26.60
2022-07-31T11:29:59.798Z,26.30
2022-07-31T11:31:58.903Z,26.20
2022-07-31T11:34:27.048Z,26.30
2022-07-31T11:36:54.146Z,26.70
2022-07-31T11:39:25.857Z,26.60
2022-07-31T11:42:07.708Z,26.50
2022-07-31T11:44:35.815Z,26.10
2022-07-31T11:47:03.412Z,26.40
2022-07-31T11:50:01.767Z,26.30
2022-07-31T11:52:30.723Z,27.00
2022-07-31T11:55:09.644Z,27.60
2022-07-31T11:57:51.299Z,27.40
2022-07-31T12:00:26.671Z,27.50
2022-07-31T12:02:57.480Z,27.90
2022-07-31T12:05:37.606Z,27.60
2022-07-31T12:08:08.160Z,27.50
2022-07-31T12:10:35.616Z,28.30
2022-07-31T12:13:03.376Z,28.30
2022-07-31T12:15:30.567Z,28.40
2022-07-31T12:18:03.170Z,28.20
2022-07-31T12:20:35.767Z,28.00
2022-07-31T12:23:05.323Z,27.80
2022-07-31T12:25:46.645Z,28.00
2022-07-31T12:28:17.284Z,27.40
2022-07-31T12:30:46.080Z,27.00
2022-07-31T12:33:15.185Z,27.70
2022-07-31T12:35:55.802Z,28.00
2022-07-31T12:38:47.780Z,28.00
2022-07-31T12:41:15.243Z,27.60
2022-07-31T12:43:51.414Z,27.70
2022-07-31T12:46:39.668Z,28.00
2022-07-31T12:49:08.406Z,28.80
2022-07-31T12:51:46.016Z,29.60
2022-07-31T12:54:17.964Z,29.50
2022-07-31T12:56:46.813Z,29.30
2022-07-31T12:59:14.634Z,29.30
2022-07-31T13:01:42.205Z,29.10
2022-07-31T13:04:18.970Z,29.50
2022-07-31T13:06:49.266Z,29.40
2022-07-31T13:09:17.466Z,29.20
2022-07-31T13:11:45.637Z,28.70
2022-07-31T13:14:16.752Z,28.70
2022-07-31T13:16:45.243Z,28.40
2022-07-31T13:19:13.494Z,28.50
2022-07-31T13:21:49.620Z,28.40
2022-07-31T13:24:20.629Z,28.40
2022-07-31T13:26:49.369Z,28.60
2022-07-31T13:29:17.226Z,28.50
2022-07-31T13:31:44.625Z,28.40
2022-07-31T13:34:12.075Z,28.70
2022-07-31T13:36:40.038Z,28.70
2022-07-31T13:39:08.665Z,28.30
2022-07-31T13:41:39.687Z,28.70
2022-07-31T13:44:08.061Z,28.90
2022-07-31T13:46:35.298Z,28.80
2022-07-31T13:49:05.202Z,28.00
2022-07-31T13:51:32.349Z,27.60
2022-07-31T13:53:59.776Z,27.70
2022-07-31T13:56:40.405Z,27.40
2022-07-31T13:59:11.903Z,27.10
2022-07-31T14:02:03.325Z,26.90
2022-07-31T14:04:32.107Z,26.80
2022-07-31T14:07:04.531Z,26.70
2022-07-31T14:09:34.849Z,26.60
2022-07-31T14:12:04.960Z,26.60
2022-07-31T14:14:33.173Z,26.80
2022-07-31T14:17:02.392Z,26.80
2022-07-31T14:19:29.639Z,26.70
2022-07-31T14:21:57.634Z,26.40
2022-07-31T14:24:27.827Z,26.30
2022-07-31T14:26:55.194Z,26.20
2022-07-31T14:29:22.305Z,26.20
2022-07-31T14:31:50.030Z,26.30
2022-07-31T14:34:18.900Z,26.30
2022-07-31T14:36:46.060Z,26.20
2022-07-31T14:39:13.235Z,25.90
2022-07-31T14:41:40.336Z,25.60
2022-07-31T14:44:07.430Z,25.50
2022-07-31T14:46:34.517Z,25.40
2022-07-31T14:49:02.807Z,25.40
2022-07-31T14:51:29.984Z,25.40
2022-07-31T14:53:57.067Z,25.40
2022-07-31T14:56:51.413Z,25.40
2022-07-31T14:59:11.196Z,25.40
2022-07-31T15:01:38.343Z,25.40
2022-07-31T15:04:06.749Z,25.50
2022-07-31T15:06:39.513Z,25.40
2022-07-31T15:09:21.054Z,25.30
2022-07-31T15:12:00.264Z,25.20
2022-07-31T15:14:32.312Z,25.20
2022-07-31T15:16:59.693Z,25.30
2022-07-31T15:19:27.798Z,25.60
2022-07-31T15:22:11.050Z,25.70
2022-07-31T15:24:48.421Z,25.80
2022-07-31T15:27:19.334Z,25.70
2022-07-31T15:30:00.615Z,25.60
2022-07-31T15:32:34.211Z,25.60
2022-07-31T15:35:01.436Z,25.50
2022-07-31T15:37:28.657Z,25.40
2022-07-31T15:40:02.402Z,25.30
2022-07-31T15:42:38.553Z,25.40
2022-07-31T15:45:16.493Z,25.60
2022-07-31T15:47:44.802Z,25.80
2022-07-31T15:50:13.991Z,26.40
2022-07-31T15:52:43.590Z,27.60
2022-07-31T15:55:11.663Z,28.40
2022-07-31T15:57:39.006Z,28.60
2022-07-31T16:00:12.366Z,28.70
2022-07-31T16:02:39.774Z,28.50
2022-07-31T16:05:11.744Z,28.00
2022-07-31T16:08:32.747Z,28.10
2022-07-31T16:10:37.112Z,28.10
2022-07-31T16:13:04.834Z,28.20
2022-07-31T16:15:32.246Z,28.10
2022-07-31T16:17:59.322Z,27.80
2022-07-31T16:20:27.216Z,27.40
2022-07-31T16:23:01.640Z,27.00
2022-07-31T16:25:32.112Z,26.80
2022-07-31T16:28:03.265Z,26.60
2022-07-31T16:30:30.728Z,26.40
2022-07-31T16:32:58.025Z,26.20
2022-07-31T16:35:28.018Z,26.10
2022-07-31T16:37:55.635Z,26.00
2022-07-31T16:40:28.191Z,26.10
2022-07-31T16:43:47.584Z,26.00
2022-07-31T16:45:50.877Z,25.90
2022-07-31T16:48:18.138Z,25.70
2022-07-31T16:50:46.429Z,25.60
2022-07-31T16:54:10.754Z,25.50
2022-07-31T16:56:07.243Z,25.50
2022-07-31T16:58:34.991Z,25.40
2022-07-31T17:01:04.278Z,25.30
2022-07-31T17:03:58.501Z,25.20
2022-07-31T17:06:18.830Z,25.10
2022-07-31T17:09:16.768Z,25.00
2022-07-31T17:11:47.695Z,24.90
2022-07-31T17:14:16.047Z,24.80
2022-07-31T17:16:47.132Z,24.70
2022-07-31T17:19:15.354Z,24.70
2022-07-31T17:21:44.500Z,24.70
2022-07-31T17:24:16.094Z,24.70
2022-07-31T17:26:44.148Z,24.80
2022-07-31T17:29:12.320Z,25.00
2022-07-31T17:31:39.493Z,25.20
2022-07-31T17:34:09.257Z,25.30
2022-07-31T17:36:36.889Z,25.50
2022-07-31T17:39:04.827Z,25.40
2022-07-31T17:41:32.697Z,25.20
2022-07-31T17:43:59.820Z,24.90
2022-07-31T17:46:29.290Z,24.70
2022-07-31T17:49:08.544Z,24.50
2022-07-31T17:51:35.831Z,24.40
2022-07-31T17:54:03.486Z,24.30
2022-07-31T17:56:30.888Z,24.20
2022-07-31T17:59:04.676Z,24.10
2022-07-31T18:01:34.523Z,24.00
2022-07-31T18:04:02.448Z,24.00
2022-07-31T18:06:30.384Z,24.00
2022-07-31T18:08:57.989Z,24.00
2022-07-31T18:11:25.618Z,24.00
2022-07-31T18:13:55.545Z,23.90
2022-07-31T18:16:28.172Z,23.90
2022-07-31T18:18:55.225Z,23.90
2022-07-31T18:21:22.458Z,23.90
2022-07-31T18:23:49.839Z,23.80
2022-07-31T18:26:16.918Z,23.80
2022-07-31T18:28:44.473Z,23.70
2022-07-31T18:31:31.819Z,23.60
2022-07-31T18:33:58.624Z,23.60
2022-07-31T18:36:26.610Z,23.60
2022-07-31T18:38:53.646Z,23.50
2022-07-31T18:41:21.778Z,23.50
2022-07-31T18:43:49.074Z,23.50
2022-07-31T18:46:16.312Z,23.50
2022-07-31T18:48:43.438Z,23.40
2022-07-31T18:51:11.092Z,23.30
2022-07-31T18:53:38.359Z,23.30
2022-07-31T18:56:05.443Z,23.30
2022-07-31T18:58:33.044Z,23.30
2022-07-31T19:01:00.534Z,23.20
2022-07-31T19:03:29.888Z,23.20
2022-07-31T19:06:01.015Z,23.20
2022-07-31T19:08:28.221Z,23.10
2022-07-31T19:10:55.501Z,23.10
2022-07-31T19:13:22.979Z,23.00
2022-07-31T19:15:53.134Z,23.00
2022-07-31T19:18:28.002Z,23.00
2022-07-31T19:21:17.627Z,22.90
2022-07-31T19:23:43.362Z,22.90
2022-07-31T19:26:11.733Z,22.80
2022-07-31T19:28:40.013Z,22.80
2022-07-31T19:31:07.369Z,22.70
2022-07-31T19:33:34.474Z,22.70
2022-07-31T19:36:03.154Z,22.70
2022-07-31T19:38:31.759Z,22.70
2022-07-31T19:40:59.224Z,22.60
2022-07-31T19:43:26.358Z,22.60
2022-07-31T19:46:10.493Z,22.60
2022-07-31T19:48:44.012Z,22.60
2022-07-31T19:51:13.444Z,22.50
2022-07-31T19:53:40.682Z,22.40
2022-07-31T19:56:08.412Z,22.40
2022-07-31T19:58:36.834Z,22.40
2022-07-31T20:01:06.246Z,22.30
2022-07-31T20:03:33.745Z,22.20
2022-07-31T20:06:01.557Z,22.10
2022-07-31T20:08:29.619Z,22.10
2022-07-31T20:11:03.681Z,22.00
2022-07-31T20:13:35.039Z,22.00
2022-07-31T20:16:03.829Z,21.80
2022-07-31T20:18:31.146Z,21.80
2022-07-31T20:21:03.565Z,21.80
2022-07-31T20:23:31.529Z,21.70
2022-07-31T20:25:58.783Z,21.70
2022-07-31T20:28:27.055Z,21.70
2022-07-31T20:30:54.520Z,21.60
2022-07-31T20:33:21.570Z,21.60
2022-07-31T20:35:50.269Z,21.60
2022-07-31T20:38:22.429Z,21.50
2022-07-31T20:40:54.016Z,21.50
2022-07-31T20:43:27.394Z,21.50
2022-07-31T20:45:59.543Z,21.50
2022-07-31T20:48:35.201Z,21.40
2022-07-31T20:51:03.719Z,21.40
2022-07-31T20:53:31.828Z,21.30
2022-07-31T20:55:59.105Z,21.20
2022-07-31T20:58:26.514Z,21.10
2022-07-31T21:00:54.635Z,21.00
2022-07-31T21:03:22.012Z,20.90
2022-07-31T21:05:49.411Z,20.80
2022-07-31T21:08:17.096Z,20.70
2022-07-31T21:10:45.007Z,20.60
2022-07-31T21:13:12.838Z,20.60
2022-07-31T21:15:41.646Z,20.50
2022-07-31T21:18:16.133Z,20.40
2022-07-31T21:20:50.616Z,20.40
2022-07-31T21:23:24.314Z,20.30
2022-07-31T21:25:53.062Z,20.20
2022-07-31T21:28:21.024Z,20.10
2022-07-31T21:30:48.657Z,20.10
2022-07-31T21:33:16.414Z,20.00
2022-07-31T21:35:43.718Z,20.00
2022-07-31T21:38:12.491Z,20.00
2022-07-31T21:40:41.027Z,19.90
2022-07-31T21:43:09.442Z,19.80
2022-07-31T21:45:50.622Z,19.80
2022-07-31T21:48:25.391Z,19.80
2022-07-31T21:50:53.789Z,19.80
2022-07-31T21:53:20.975Z,19.70
2022-07-31T21:55:48.141Z,19.70
2022-07-31T21:58:15.307Z,19.70
2022-07-31T22:00:44.142Z,19.60
2022-07-31T22:03:11.541Z,19.60
2022-07-31T22:05:57.099Z,19.50
2022-07-31T22:08:24.213Z,19.50
2022-07-31T22:10:52.425Z,19.40
2022-07-31T22:13:20.467Z,19.40
2022-07-31T22:15:55.586Z,19.40
2022-07-31T22:18:32.571Z,19.30
2022-07-31T22:21:01.348Z,19.30
2022-07-31T22:23:29.094Z,19.20
2022-07-31T22:25:56.616Z,19.20
2022-07-31T22:28:25.465Z,19.20
2022-07-31T22:30:53.350Z,19.20
2022-07-31T22:33:21.534Z,19.20
2022-07-31T22:35:58.964Z,19.20
2022-07-31T22:38:30.857Z,19.10
2022-07-31T22:41:01.608Z,19.10
2022-07-31T22:44:11.541Z,19.10
2022-07-31T22:46:16.368Z,19.00
2022-07-31T22:48:45.745Z,19.00
2022-07-31T22:51:14.955Z,19.00
2022-07-31T22:53:48.897Z,19.00
2022-07-31T22:56:17.756Z,19.00
2022-07-31T22:58:44.828Z,19.00
2022-07-31T23:01:12.427Z,19.00
2022-07-31T23:03:39.490Z,19.00
2022-07-31T23:06:30.049Z,19.00
2022-07-31T23:08:55.046Z,19.00
2022-07-31T23:11:23.364Z,19.00
2022-07-31T23:13:51.401Z,19.00
2022-07-31T23:16:18.571Z,19.00
2022-07-31T23:18:45.667Z,19.00
2022-07-31T23:21:12.774Z,18.90
2022-07-31T23:23:39.816Z,18.90
2022-07-31T23:26:06.931Z,18.90
2022-07-31T23:28:34.390Z,18.90
2022-07-31T23:31:01.462Z,18.90
2022-07-31T23:33:28.592Z,18.90
2022-07-31T23:35:55.699Z,18.90
2022-07-31T23:38:22.775Z,18.90
2022-07-31T23:40:49.878Z,18.90
2022-07-31T23:43:20.890Z,18.90
2022-07-31T23:45:48.261Z,18.90
2022-07-31T23:48:15.480Z,18.90
2022-07-31T23:50:44.547Z,18.90
2022-07-31T23:53:11.857Z,18.80
2022-07-31T23:55:42.912Z,18.90
2022-07-31T23:58:10.696Z,18.80
